Hahnaman, Illinois
Current Conditions -  °F | °C
As of 6:15 PM on Thursday 27 Nov 2014 (Local Time) from KSQI Reporting Station
Clear Clear  
Wind Chill:   Ceiling: Unl
Heat Index: 14°   Visibility: 10mi
Dew Point:   Wind: 5mph
Humidity: 73%   Direction: 280°W
Pressure: 30.42"   Gusts: NA
Location:  41.6367°N, 89.7881°W
Report Text: KSQI 280015Z 28004KT 10SM CLR M10/M14 A3042 RMK AO1
Loading
Personal Weather Stations






























Interactive Weather Map New forecast layout! Learn more

10-Day Weather Forecast

Advertisements
Track Severe Weather on mobile